sensor_id;sensor_type;location;lat;lon;timestamp;temperature;humidity
69901;DHT22;57183;50.930;5.406;2022-10-19T00:01:05;10.80;99.90
69901;DHT22;57183;50.930;5.406;2022-10-19T00:03:32;10.70;99.90
69901;DHT22;57183;50.930;5.406;2022-10-19T00:05:58;11.00;99.90
69901;DHT22;57183;50.930;5.406;2022-10-19T00:08:24;11.10;99.90
69901;DHT22;57183;50.930;5.406;2022-10-19T00:10:49;11.30;99.90
69901;DHT22;57183;50.930;5.406;2022-10-19T00:13:15;11.60;99.90
69901;DHT22;57183;50.930;5.406;2022-10-19T00:15:41;11.70;99.90
69901;DHT22;57183;50.930;5.406;2022-10-19T00:18:07;11.60;99.90
69901;DHT22;57183;50.930;5.406;2022-10-19T00:20:34;11.40;99.90
69901;DHT22;57183;50.930;5.406;2022-10-19T00:23:00;11.50;99.90
69901;DHT22;57183;50.930;5.406;2022-10-19T00:25:26;11.40;99.90
69901;DHT22;57183;50.930;5.406;2022-10-19T00:27:52;11.20;99.90
69901;DHT22;57183;50.930;5.406;2022-10-19T00:30:17;11.10;99.90
69901;DHT22;57183;50.930;5.406;2022-10-19T00:32:43;10.90;99.90
69901;DHT22;57183;50.930;5.406;2022-10-19T00:35:09;10.90;99.90
69901;DHT22;57183;50.930;5.406;2022-10-19T00:40:03;10.70;99.90
69901;DHT22;57183;50.930;5.406;2022-10-19T00:42:28;10.90;99.90
69901;DHT22;57183;50.930;5.406;2022-10-19T00:44:58;11.00;99.90
69901;DHT22;57183;50.930;5.406;2022-10-19T00:47:24;10.90;99.90
69901;DHT22;57183;50.930;5.406;2022-10-19T00:49:50;10.80;99.90
69901;DHT22;57183;50.930;5.406;2022-10-19T00:52:19;10.70;99.90
69901;DHT22;57183;50.930;5.406;2022-10-19T00:54:46;10.70;99.90
69901;DHT22;57183;50.930;5.406;2022-10-19T00:57:13;10.70;99.90
69901;DHT22;57183;50.930;5.406;2022-10-19T00:59:42;10.60;99.90
69901;DHT22;57183;50.930;5.406;2022-10-19T01:02:09;10.60;99.90
69901;DHT22;57183;50.930;5.406;2022-10-19T01:04:37;10.60;99.90
69901;DHT22;57183;50.930;5.406;2022-10-19T01:07:05;10.50;99.90
69901;DHT22;57183;50.930;5.406;2022-10-19T01:09:33;10.50;99.90
69901;DHT22;57183;50.930;5.406;2022-10-19T01:18:17;10.50;99.90
69901;DHT22;57183;50.930;5.406;2022-10-19T01:27:13;10.30;99.90
69901;DHT22;57183;50.930;5.406;2022-10-19T01:30:30;10.10;99.90
69901;DHT22;57183;50.930;5.406;2022-10-19T01:32:49;10.10;99.90
69901;DHT22;57183;50.930;5.406;2022-10-19T01:38:13;10.10;99.90
69901;DHT22;57183;50.930;5.406;2022-10-19T01:41:14;10.20;99.90
69901;DHT22;57183;50.930;5.406;2022-10-19T01:47:12;10.90;99.90
69901;DHT22;57183;50.930;5.406;2022-10-19T01:50:00;11.10;99.90
69901;DHT22;57183;50.930;5.406;2022-10-19T01:52:26;11.20;99.90
69901;DHT22;57183;50.930;5.406;2022-10-19T01:54:56;11.30;99.90
69901;DHT22;57183;50.930;5.406;2022-10-19T01:57:31;11.30;99.90
69901;DHT22;57183;50.930;5.406;2022-10-19T01:59:57;11.40;99.90
69901;DHT22;57183;50.930;5.406;2022-10-19T02:02:25;11.30;99.90
69901;DHT22;57183;50.930;5.406;2022-10-19T02:04:53;11.30;99.90
69901;DHT22;57183;50.930;5.406;2022-10-19T02:07:22;11.30;99.90
69901;DHT22;57183;50.930;5.406;2022-10-19T02:09:49;11.30;99.90
69901;DHT22;57183;50.930;5.406;2022-10-19T02:12:15;11.50;99.90
69901;DHT22;57183;50.930;5.406;2022-10-19T02:14:45;11.50;99.90
69901;DHT22;57183;50.930;5.406;2022-10-19T02:17:15;11.50;99.90
69901;DHT22;57183;50.930;5.406;2022-10-19T02:19:42;11.30;99.90
69901;DHT22;57183;50.930;5.406;2022-10-19T02:22:08;11.40;99.90
69901;DHT22;57183;50.930;5.406;2022-10-19T02:24:34;11.50;99.90
69901;DHT22;57183;50.930;5.406;2022-10-19T02:27:02;11.50;99.90
69901;DHT22;57183;50.930;5.406;2022-10-19T02:29:30;11.60;99.90
69901;DHT22;57183;50.930;5.406;2022-10-19T02:31:57;11.50;99.90
69901;DHT22;57183;50.930;5.406;2022-10-19T02:34:23;11.40;99.90
69901;DHT22;57183;50.930;5.406;2022-10-19T02:36:49;11.30;99.90
69901;DHT22;57183;50.930;5.406;2022-10-19T02:39:15;11.10;99.90
69901;DHT22;57183;50.930;5.406;2022-10-19T02:41:44;11.00;99.90
69901;DHT22;57183;50.930;5.406;2022-10-19T02:44:21;10.80;99.90
69901;DHT22;57183;50.930;5.406;2022-10-19T02:46:52;10.60;99.90
69901;DHT22;57183;50.930;5.406;2022-10-19T02:49:20;10.50;99.90
69901;DHT22;57183;50.930;5.406;2022-10-19T02:51:59;10.40;99.90
69901;DHT22;57183;50.930;5.406;2022-10-19T02:56:54;10.20;99.90
69901;DHT22;57183;50.930;5.406;2022-10-19T02:59:20;10.30;99.90
69901;DHT22;57183;50.930;5.406;2022-10-19T03:01:45;10.20;99.90
69901;DHT22;57183;50.930;5.406;2022-10-19T03:04:11;10.20;99.90
69901;DHT22;57183;50.930;5.406;2022-10-19T03:06:37;10.10;99.90
69901;DHT22;57183;50.930;5.406;2022-10-19T03:09:03;10.00;99.90
69901;DHT22;57183;50.930;5.406;2022-10-19T03:11:28;9.90;99.90
69901;DHT22;57183;50.930;5.406;2022-10-19T03:13:54;9.90;99.90
69901;DHT22;57183;50.930;5.406;2022-10-19T03:16:20;9.90;99.90
69901;DHT22;57183;50.930;5.406;2022-10-19T03:18:47;9.90;99.90
69901;DHT22;57183;50.930;5.406;2022-10-19T03:21:13;10.10;99.90
69901;DHT22;57183;50.930;5.406;2022-10-19T03:23:39;9.90;99.90
69901;DHT22;57183;50.930;5.406;2022-10-19T03:26:06;9.90;99.90
69901;DHT22;57183;50.930;5.406;2022-10-19T03:28:33;9.80;99.90
69901;DHT22;57183;50.930;5.406;2022-10-19T03:31:02;9.80;99.90
69901;DHT22;57183;50.930;5.406;2022-10-19T03:33:27;10.00;99.90
69901;DHT22;57183;50.930;5.406;2022-10-19T03:38:59;10.10;99.90
69901;DHT22;57183;50.930;5.406;2022-10-19T03:41:28;10.10;99.90
69901;DHT22;57183;50.930;5.406;2022-10-19T03:44:04;10.30;99.90
69901;DHT22;57183;50.930;5.406;2022-10-19T03:46:30;10.40;99.90
69901;DHT22;57183;50.930;5.406;2022-10-19T03:49:03;10.40;99.90
69901;DHT22;57183;50.930;5.406;2022-10-19T03:51:35;10.50;99.90
69901;DHT22;57183;50.930;5.406;2022-10-19T03:54:04;10.70;99.90
69901;DHT22;57183;50.930;5.406;2022-10-19T03:56:30;10.50;99.90
69901;DHT22;57183;50.930;5.406;2022-10-19T04:01:57;10.80;99.90
69901;DHT22;57183;50.930;5.406;2022-10-19T04:04:29;11.00;99.90
69901;DHT22;57183;50.930;5.406;2022-10-19T04:07:02;11.00;99.90
69901;DHT22;57183;50.930;5.406;2022-10-19T04:09:28;11.00;99.90
69901;DHT22;57183;50.930;5.406;2022-10-19T04:11:54;11.00;99.90
69901;DHT22;57183;50.930;5.406;2022-10-19T04:14:21;10.80;99.90
69901;DHT22;57183;50.930;5.406;2022-10-19T04:16:47;10.80;99.90
69901;DHT22;57183;50.930;5.406;2022-10-19T04:19:14;11.00;99.90
69901;DHT22;57183;50.930;5.406;2022-10-19T04:21:40;11.00;99.90
69901;DHT22;57183;50.930;5.406;2022-10-19T04:24:16;11.00;99.90
69901;DHT22;57183;50.930;5.406;2022-10-19T04:26:48;11.00;99.90
69901;DHT22;57183;50.930;5.406;2022-10-19T04:29:16;10.90;99.90
69901;DHT22;57183;50.930;5.406;2022-10-19T04:31:43;10.90;99.90
69901;DHT22;57183;50.930;5.406;2022-10-19T04:34:09;11.00;99.90
69901;DHT22;57183;50.930;5.406;2022-10-19T04:36:35;11.10;99.90
69901;DHT22;57183;50.930;5.406;2022-10-19T04:39:01;10.90;99.90
69901;DHT22;57183;50.930;5.406;2022-10-19T04:41:27;10.80;99.90
69901;DHT22;57183;50.930;5.406;2022-10-19T04:43:57;10.80;99.90
69901;DHT22;57183;50.930;5.406;2022-10-19T04:46:26;10.70;99.90
69901;DHT22;57183;50.930;5.406;2022-10-19T04:48:58;10.70;99.90
69901;DHT22;57183;50.930;5.406;2022-10-19T04:51:25;10.60;99.90
69901;DHT22;57183;50.930;5.406;2022-10-19T04:53:51;10.60;99.90
69901;DHT22;57183;50.930;5.406;2022-10-19T04:56:55;10.70;99.90
69901;DHT22;57183;50.930;5.406;2022-10-19T04:59:32;10.80;99.90
69901;DHT22;57183;50.930;5.406;2022-10-19T05:04:47;10.70;99.90
69901;DHT22;57183;50.930;5.406;2022-10-19T05:07:12;10.70;99.90
69901;DHT22;57183;50.930;5.406;2022-10-19T05:09:38;10.70;99.90
69901;DHT22;57183;50.930;5.406;2022-10-19T05:12:05;10.60;99.90
69901;DHT22;57183;50.930;5.406;2022-10-19T05:14:32;10.70;99.90
69901;DHT22;57183;50.930;5.406;2022-10-19T05:16:59;10.70;99.90
69901;DHT22;57183;50.930;5.406;2022-10-19T05:22:09;10.70;99.90
69901;DHT22;57183;50.930;5.406;2022-10-19T05:24:35;10.70;99.90
69901;DHT22;57183;50.930;5.406;2022-10-19T05:27:01;10.70;99.90
69901;DHT22;57183;50.930;5.406;2022-10-19T05:29:26;10.70;99.90
69901;DHT22;57183;50.930;5.406;2022-10-19T05:31:52;10.70;99.90
69901;DHT22;57183;50.930;5.406;2022-10-19T05:34:18;10.70;99.90
69901;DHT22;57183;50.930;5.406;2022-10-19T05:36:44;10.70;99.90
69901;DHT22;57183;50.930;5.406;2022-10-19T05:39:17;10.70;99.90
69901;DHT22;57183;50.930;5.406;2022-10-19T05:41:43;10.60;99.90
69901;DHT22;57183;50.930;5.406;2022-10-19T05:44:33;10.50;99.90
69901;DHT22;57183;50.930;5.406;2022-10-19T05:46:58;10.60;99.90
69901;DHT22;57183;50.930;5.406;2022-10-19T05:49:25;10.50;99.90
69901;DHT22;57183;50.930;5.406;2022-10-19T05:54:36;10.50;99.90
69901;DHT22;57183;50.930;5.406;2022-10-19T05:57:02;10.50;99.90
69901;DHT22;57183;50.930;5.406;2022-10-19T05:59:27;10.60;99.90
69901;DHT22;57183;50.930;5.406;2022-10-19T06:01:53;10.70;99.90
69901;DHT22;57183;50.930;5.406;2022-10-19T06:04:19;10.60;99.90
69901;DHT22;57183;50.930;5.406;2022-10-19T06:06:44;10.60;99.90
69901;DHT22;57183;50.930;5.406;2022-10-19T06:09:10;10.60;99.90
69901;DHT22;57183;50.930;5.406;2022-10-19T06:11:39;10.70;99.90
69901;DHT22;57183;50.930;5.406;2022-10-19T06:14:09;10.50;99.90
69901;DHT22;57183;50.930;5.406;2022-10-19T06:16:42;10.40;99.90
69901;DHT22;57183;50.930;5.406;2022-10-19T06:19:08;10.50;99.90
69901;DHT22;57183;50.930;5.406;2022-10-19T06:21:33;10.50;99.90
69901;DHT22;57183;50.930;5.406;2022-10-19T06:24:01;10.60;99.90
69901;DHT22;57183;50.930;5.406;2022-10-19T06:26:29;10.60;99.90
69901;DHT22;57183;50.930;5.406;2022-10-19T06:28:57;10.50;99.90
69901;DHT22;57183;50.930;5.406;2022-10-19T06:31:28;10.50;99.90
69901;DHT22;57183;50.930;5.406;2022-10-19T06:33:54;10.60;99.90
69901;DHT22;57183;50.930;5.406;2022-10-19T06:36:22;10.70;99.90
69901;DHT22;57183;50.930;5.406;2022-10-19T06:38:49;10.60;99.90
69901;DHT22;57183;50.930;5.406;2022-10-19T06:41:14;10.60;99.90
69901;DHT22;57183;50.930;5.406;2022-10-19T06:43:43;10.60;99.90
69901;DHT22;57183;50.930;5.406;2022-10-19T06:46:12;10.70;99.90
69901;DHT22;57183;50.930;5.406;2022-10-19T06:51:26;10.80;99.90
69901;DHT22;57183;50.930;5.406;2022-10-19T06:53:55;10.90;99.90
69901;DHT22;57183;50.930;5.406;2022-10-19T06:56:21;10.90;99.90
69901;DHT22;57183;50.930;5.406;2022-10-19T06:58:50;11.00;99.90
69901;DHT22;57183;50.930;5.406;2022-10-19T07:01:16;11.00;99.90
69901;DHT22;57183;50.930;5.406;2022-10-19T07:03:42;11.00;99.90
69901;DHT22;57183;50.930;5.406;2022-10-19T07:06:10;11.10;99.90
69901;DHT22;57183;50.930;5.406;2022-10-19T07:08:37;11.20;99.90
69901;DHT22;57183;50.930;5.406;2022-10-19T07:11:09;11.30;99.90
69901;DHT22;57183;50.930;5.406;2022-10-19T07:13:35;11.30;99.90
69901;DHT22;57183;50.930;5.406;2022-10-19T07:16:09;11.20;99.90
69901;DHT22;57183;50.930;5.406;2022-10-19T07:18:37;11.30;99.90
69901;DHT22;57183;50.930;5.406;2022-10-19T07:21:08;11.40;99.90
69901;DHT22;57183;50.930;5.406;2022-10-19T07:23:36;11.50;99.90
69901;DHT22;57183;50.930;5.406;2022-10-19T07:26:04;11.60;99.90
69901;DHT22;57183;50.930;5.406;2022-10-19T07:28:31;11.70;99.90
69901;DHT22;57183;50.930;5.406;2022-10-19T07:30:56;11.70;99.90
69901;DHT22;57183;50.930;5.406;2022-10-19T07:33:22;11.80;99.90
69901;DHT22;57183;50.930;5.406;2022-10-19T07:35:48;11.90;99.90
69901;DHT22;57183;50.930;5.406;2022-10-19T07:38:14;11.80;99.90
69901;DHT22;57183;50.930;5.406;2022-10-19T07:40:40;11.90;99.90
69901;DHT22;57183;50.930;5.406;2022-10-19T07:43:05;12.00;99.90
69901;DHT22;57183;50.930;5.406;2022-10-19T07:45:31;12.10;99.90
69901;DHT22;57183;50.930;5.406;2022-10-19T07:47:58;12.10;99.90
69901;DHT22;57183;50.930;5.406;2022-10-19T07:50:24;12.20;99.90
69901;DHT22;57183;50.930;5.406;2022-10-19T07:52:52;12.20;99.90
69901;DHT22;57183;50.930;5.406;2022-10-19T07:55:17;12.30;99.90
69901;DHT22;57183;50.930;5.406;2022-10-19T07:57:48;12.30;99.90
69901;DHT22;57183;50.930;5.406;2022-10-19T08:00:15;12.40;99.90
69901;DHT22;57183;50.930;5.406;2022-10-19T08:02:41;12.40;99.90
69901;DHT22;57183;50.930;5.406;2022-10-19T08:05:07;12.50;99.90
69901;DHT22;57183;50.930;5.406;2022-10-19T08:07:33;12.60;99.90
69901;DHT22;57183;50.930;5.406;2022-10-19T08:09:59;12.60;99.90
69901;DHT22;57183;50.930;5.406;2022-10-19T08:12:25;12.70;99.90
69901;DHT22;57183;50.930;5.406;2022-10-19T08:14:52;12.70;99.90
69901;DHT22;57183;50.930;5.406;2022-10-19T08:17:18;12.70;99.90
69901;DHT22;57183;50.930;5.406;2022-10-19T08:19:47;12.80;99.90
69901;DHT22;57183;50.930;5.406;2022-10-19T08:22:13;12.90;99.90
69901;DHT22;57183;50.930;5.406;2022-10-19T08:24:39;13.00;99.90
69901;DHT22;57183;50.930;5.406;2022-10-19T08:27:05;13.00;99.90
69901;DHT22;57183;50.930;5.406;2022-10-19T08:29:31;13.10;99.90
69901;DHT22;57183;50.930;5.406;2022-10-19T08:31:56;12.90;99.90
69901;DHT22;57183;50.930;5.406;2022-10-19T08:34:22;13.00;99.90
69901;DHT22;57183;50.930;5.406;2022-10-19T08:36:48;13.00;99.90
69901;DHT22;57183;50.930;5.406;2022-10-19T08:39:14;13.10;99.90
69901;DHT22;57183;50.930;5.406;2022-10-19T08:53:04;13.60;99.90
69901;DHT22;57183;50.930;5.406;2022-10-19T08:55:58;13.50;99.90
69901;DHT22;57183;50.930;5.406;2022-10-19T09:04:19;13.50;99.90
69901;DHT22;57183;50.930;5.406;2022-10-19T09:09:31;13.90;99.90
69901;DHT22;57183;50.930;5.406;2022-10-19T09:12:03;14.00;99.90
69901;DHT22;57183;50.930;5.406;2022-10-19T09:14:32;14.00;99.90
69901;DHT22;57183;50.930;5.406;2022-10-19T09:17:04;14.10;99.90
69901;DHT22;57183;50.930;5.406;2022-10-19T09:19:30;14.30;99.90
69901;DHT22;57183;50.930;5.406;2022-10-19T09:27:22;14.40;99.90
69901;DHT22;57183;50.930;5.406;2022-10-19T09:30:05;14.50;99.90
69901;DHT22;57183;50.930;5.406;2022-10-19T09:32:34;14.50;99.90
69901;DHT22;57183;50.930;5.406;2022-10-19T09:35:07;14.50;99.90
69901;DHT22;57183;50.930;5.406;2022-10-19T09:37:45;14.50;99.90
69901;DHT22;57183;50.930;5.406;2022-10-19T09:40:33;14.60;99.90
69901;DHT22;57183;50.930;5.406;2022-10-19T09:42:59;14.70;99.90
69901;DHT22;57183;50.930;5.406;2022-10-19T09:48:47;14.90;99.90
69901;DHT22;57183;50.930;5.406;2022-10-19T09:51:15;15.00;99.90
69901;DHT22;57183;50.930;5.406;2022-10-19T09:53:49;15.00;99.90
69901;DHT22;57183;50.930;5.406;2022-10-19T09:56:21;14.90;99.90
69901;DHT22;57183;50.930;5.406;2022-10-19T09:58:50;15.10;99.90
69901;DHT22;57183;50.930;5.406;2022-10-19T10:01:37;15.10;99.90
69901;DHT22;57183;50.930;5.406;2022-10-19T10:06:30;15.10;99.90
69901;DHT22;57183;50.930;5.406;2022-10-19T10:08:56;15.20;99.90
69901;DHT22;57183;50.930;5.406;2022-10-19T10:13:51;15.20;99.90
69901;DHT22;57183;50.930;5.406;2022-10-19T10:16:20;15.20;99.90
69901;DHT22;57183;50.930;5.406;2022-10-19T10:18:56;15.10;99.90
69901;DHT22;57183;50.930;5.406;2022-10-19T10:21:30;15.30;99.90
69901;DHT22;57183;50.930;5.406;2022-10-19T10:26:43;15.40;99.90
69901;DHT22;57183;50.930;5.406;2022-10-19T10:29:32;15.40;99.90
69901;DHT22;57183;50.930;5.406;2022-10-19T10:32:07;15.40;99.90
69901;DHT22;57183;50.930;5.406;2022-10-19T10:34:43;15.40;99.90
69901;DHT22;57183;50.930;5.406;2022-10-19T10:37:40;15.40;99.90
69901;DHT22;57183;50.930;5.406;2022-10-19T10:40:23;15.50;99.90
69901;DHT22;57183;50.930;5.406;2022-10-19T10:42:53;15.50;99.90
69901;DHT22;57183;50.930;5.406;2022-10-19T10:45:25;15.50;99.90
69901;DHT22;57183;50.930;5.406;2022-10-19T10:47:53;15.50;99.90
69901;DHT22;57183;50.930;5.406;2022-10-19T10:50:22;15.50;99.90
69901;DHT22;57183;50.930;5.406;2022-10-19T10:53:03;15.60;99.90
69901;DHT22;57183;50.930;5.406;2022-10-19T10:55:29;15.60;99.90
69901;DHT22;57183;50.930;5.406;2022-10-19T10:58:13;15.70;99.90
69901;DHT22;57183;50.930;5.406;2022-10-19T11:00:41;15.80;99.90
69901;DHT22;57183;50.930;5.406;2022-10-19T11:03:22;15.90;99.90
69901;DHT22;57183;50.930;5.406;2022-10-19T11:05:55;15.90;99.90
69901;DHT22;57183;50.930;5.406;2022-10-19T11:11:20;16.00;99.90
69901;DHT22;57183;50.930;5.406;2022-10-19T11:13:57;16.10;99.90
69901;DHT22;57183;50.930;5.406;2022-10-19T11:16:27;16.20;99.90
69901;DHT22;57183;50.930;5.406;2022-10-19T11:19:01;16.10;99.90
69901;DHT22;57183;50.930;5.406;2022-10-19T11:27:54;16.40;99.90
69901;DHT22;57183;50.930;5.406;2022-10-19T11:30:25;16.30;99.90
69901;DHT22;57183;50.930;5.406;2022-10-19T11:35:49;16.00;99.90
69901;DHT22;57183;50.930;5.406;2022-10-19T11:52:11;16.00;99.90
69901;DHT22;57183;50.930;5.406;2022-10-19T12:00:36;16.00;99.90
69901;DHT22;57183;50.930;5.406;2022-10-19T12:11:48;16.40;99.90
69901;DHT22;57183;50.930;5.406;2022-10-19T12:14:22;16.50;99.90
69901;DHT22;57183;50.930;5.406;2022-10-19T12:16:52;16.60;99.90
69901;DHT22;57183;50.930;5.406;2022-10-19T12:19:25;16.60;99.90
69901;DHT22;57183;50.930;5.406;2022-10-19T12:21:57;16.70;99.90
69901;DHT22;57183;50.930;5.406;2022-10-19T12:24:24;16.80;99.90
69901;DHT22;57183;50.930;5.406;2022-10-19T12:26:53;16.70;99.90
69901;DHT22;57183;50.930;5.406;2022-10-19T12:29:40;16.60;99.90
69901;DHT22;57183;50.930;5.406;2022-10-19T12:32:10;16.50;99.90
69901;DHT22;57183;50.930;5.406;2022-10-19T12:37:23;16.40;99.90
69901;DHT22;57183;50.930;5.406;2022-10-19T12:43:07;16.30;99.90
69901;DHT22;57183;50.930;5.406;2022-10-19T12:45:40;16.40;99.90
69901;DHT22;57183;50.930;5.406;2022-10-19T12:56:17;16.60;99.90
69901;DHT22;57183;50.930;5.406;2022-10-19T13:01:54;16.60;99.90
69901;DHT22;57183;50.930;5.406;2022-10-19T13:06:41;16.70;99.90
69901;DHT22;57183;50.930;5.406;2022-10-19T13:09:24;16.90;99.90
69901;DHT22;57183;50.930;5.406;2022-10-19T13:14:53;17.10;99.90
69901;DHT22;57183;50.930;5.406;2022-10-19T13:25:33;17.40;99.90
69901;DHT22;57183;50.930;5.406;2022-10-19T13:41:13;17.40;99.90
69901;DHT22;57183;50.930;5.406;2022-10-19T13:43:57;17.50;99.90
69901;DHT22;57183;50.930;5.406;2022-10-19T13:49:16;17.30;99.90
69901;DHT22;57183;50.930;5.406;2022-10-19T13:51:49;17.20;99.90
69901;DHT22;57183;50.930;5.406;2022-10-19T13:57:15;16.90;99.90
69901;DHT22;57183;50.930;5.406;2022-10-19T14:05:53;17.00;99.90
69901;DHT22;57183;50.930;5.406;2022-10-19T14:11:18;16.90;99.90
69901;DHT22;57183;50.930;5.406;2022-10-19T14:13:45;16.80;99.90
69901;DHT22;57183;50.930;5.406;2022-10-19T14:16:21;16.80;99.90
69901;DHT22;57183;50.930;5.406;2022-10-19T14:18:54;16.90;99.90
69901;DHT22;57183;50.930;5.406;2022-10-19T14:21:31;17.00;99.90
69901;DHT22;57183;50.930;5.406;2022-10-19T14:23:58;17.20;99.90
69901;DHT22;57183;50.930;5.406;2022-10-19T14:26:26;17.30;99.90
69901;DHT22;57183;50.930;5.406;2022-10-19T14:28:56;17.30;99.90
69901;DHT22;57183;50.930;5.406;2022-10-19T14:31:25;17.20;99.90
69901;DHT22;57183;50.930;5.406;2022-10-19T14:33:57;17.10;99.90
69901;DHT22;57183;50.930;5.406;2022-10-19T14:36:29;17.20;99.90
69901;DHT22;57183;50.930;5.406;2022-10-19T14:38:57;17.20;99.90
69901;DHT22;57183;50.930;5.406;2022-10-19T14:43:52;17.30;99.90
69901;DHT22;57183;50.930;5.406;2022-10-19T14:46:18;17.30;99.90
69901;DHT22;57183;50.930;5.406;2022-10-19T14:48:49;17.20;99.90
69901;DHT22;57183;50.930;5.406;2022-10-19T14:56:39;17.60;99.90
69901;DHT22;57183;50.930;5.406;2022-10-19T14:59:36;18.20;99.90
69901;DHT22;57183;50.930;5.406;2022-10-19T15:04:45;18.30;99.90
69901;DHT22;57183;50.930;5.406;2022-10-19T15:07:16;18.00;99.90
69901;DHT22;57183;50.930;5.406;2022-10-19T15:09:48;17.60;99.90
69901;DHT22;57183;50.930;5.406;2022-10-19T15:12:17;17.40;99.90
69901;DHT22;57183;50.930;5.406;2022-10-19T15:14:46;17.60;99.90
69901;DHT22;57183;50.930;5.406;2022-10-19T15:17:26;17.60;99.90
69901;DHT22;57183;50.930;5.406;2022-10-19T15:19:53;17.60;99.90
69901;DHT22;57183;50.930;5.406;2022-10-19T15:25:00;17.50;99.90
69901;DHT22;57183;50.930;5.406;2022-10-19T15:27:35;17.40;99.90
69901;DHT22;57183;50.930;5.406;2022-10-19T15:32:46;17.00;99.90
69901;DHT22;57183;50.930;5.406;2022-10-19T15:35:22;16.90;99.90
69901;DHT22;57183;50.930;5.406;2022-10-19T15:37:50;17.10;99.90
69901;DHT22;57183;50.930;5.406;2022-10-19T15:40:32;17.20;99.90
69901;DHT22;57183;50.930;5.406;2022-10-19T15:42:58;17.20;99.90
69901;DHT22;57183;50.930;5.406;2022-10-19T15:45:33;17.20;99.90
69901;DHT22;57183;50.930;5.406;2022-10-19T15:50:45;16.70;99.90
69901;DHT22;57183;50.930;5.406;2022-10-19T15:53:15;16.50;99.90
69901;DHT22;57183;50.930;5.406;2022-10-19T15:55:41;16.40;99.90
69901;DHT22;57183;50.930;5.406;2022-10-19T15:58:09;16.40;99.90
69901;DHT22;57183;50.930;5.406;2022-10-19T16:00:35;16.30;99.90
69901;DHT22;57183;50.930;5.406;2022-10-19T16:03:00;16.20;99.90
69901;DHT22;57183;50.930;5.406;2022-10-19T16:05:26;16.10;99.90
69901;DHT22;57183;50.930;5.406;2022-10-19T16:07:52;16.00;99.90
69901;DHT22;57183;50.930;5.406;2022-10-19T16:10:23;16.10;99.90
69901;DHT22;57183;50.930;5.406;2022-10-19T16:12:49;16.10;99.90
69901;DHT22;57183;50.930;5.406;2022-10-19T16:15:17;16.10;99.90
69901;DHT22;57183;50.930;5.406;2022-10-19T16:17:52;16.10;99.90
69901;DHT22;57183;50.930;5.406;2022-10-19T16:20:18;16.00;99.90
69901;DHT22;57183;50.930;5.406;2022-10-19T16:22:44;15.90;99.90
69901;DHT22;57183;50.930;5.406;2022-10-19T16:25:11;15.90;99.90
69901;DHT22;57183;50.930;5.406;2022-10-19T16:27:37;15.80;99.90
69901;DHT22;57183;50.930;5.406;2022-10-19T16:30:04;15.80;99.90
69901;DHT22;57183;50.930;5.406;2022-10-19T16:32:29;15.70;99.90
69901;DHT22;57183;50.930;5.406;2022-10-19T16:34:55;15.70;99.90
69901;DHT22;57183;50.930;5.406;2022-10-19T16:37:21;15.70;99.90
69901;DHT22;57183;50.930;5.406;2022-10-19T16:39:46;15.70;99.90
69901;DHT22;57183;50.930;5.406;2022-10-19T16:42:12;15.60;99.90
69901;DHT22;57183;50.930;5.406;2022-10-19T16:44:38;15.60;99.90
69901;DHT22;57183;50.930;5.406;2022-10-19T16:47:03;15.50;99.90
69901;DHT22;57183;50.930;5.406;2022-10-19T16:49:30;15.50;99.90
69901;DHT22;57183;50.930;5.406;2022-10-19T16:51:56;15.50;99.90
69901;DHT22;57183;50.930;5.406;2022-10-19T16:54:22;15.50;99.90
69901;DHT22;57183;50.930;5.406;2022-10-19T16:56:47;15.50;99.90
69901;DHT22;57183;50.930;5.406;2022-10-19T16:59:15;15.50;99.90
69901;DHT22;57183;50.930;5.406;2022-10-19T17:01:42;15.50;99.90
69901;DHT22;57183;50.930;5.406;2022-10-19T17:04:09;15.50;99.90
69901;DHT22;57183;50.930;5.406;2022-10-19T17:06:36;15.50;99.90
69901;DHT22;57183;50.930;5.406;2022-10-19T17:09:02;15.50;99.90
69901;DHT22;57183;50.930;5.406;2022-10-19T17:11:30;15.50;99.90
69901;DHT22;57183;50.930;5.406;2022-10-19T17:14:00;15.40;99.90
69901;DHT22;57183;50.930;5.406;2022-10-19T17:16:27;15.50;99.90
69901;DHT22;57183;50.930;5.406;2022-10-19T17:18:55;15.50;99.90
69901;DHT22;57183;50.930;5.406;2022-10-19T17:21:23;15.50;99.90
69901;DHT22;57183;50.930;5.406;2022-10-19T17:23:57;15.50;99.90
69901;DHT22;57183;50.930;5.406;2022-10-19T17:26:33;15.50;99.90
69901;DHT22;57183;50.930;5.406;2022-10-19T17:29:00;15.50;99.90
69901;DHT22;57183;50.930;5.406;2022-10-19T17:31:27;15.40;99.90
69901;DHT22;57183;50.930;5.406;2022-10-19T17:33:53;15.50;99.90
69901;DHT22;57183;50.930;5.406;2022-10-19T17:36:27;15.40;99.90
69901;DHT22;57183;50.930;5.406;2022-10-19T17:38:59;15.50;99.90
69901;DHT22;57183;50.930;5.406;2022-10-19T17:41:26;15.40;99.90
69901;DHT22;57183;50.930;5.406;2022-10-19T17:43:52;15.40;99.90
69901;DHT22;57183;50.930;5.406;2022-10-19T17:46:21;15.40;99.90
69901;DHT22;57183;50.930;5.406;2022-10-19T17:48:47;15.40;99.90
69901;DHT22;57183;50.930;5.406;2022-10-19T17:51:15;15.40;99.90
69901;DHT22;57183;50.930;5.406;2022-10-19T17:53:42;15.40;99.90
69901;DHT22;57183;50.930;5.406;2022-10-19T17:56:11;15.30;99.90
69901;DHT22;57183;50.930;5.406;2022-10-19T17:58:36;15.20;99.90
69901;DHT22;57183;50.930;5.406;2022-10-19T18:01:05;15.30;99.90
69901;DHT22;57183;50.930;5.406;2022-10-19T18:03:32;15.20;99.90
69901;DHT22;57183;50.930;5.406;2022-10-19T18:08:26;15.20;99.90
69901;DHT22;57183;50.930;5.406;2022-10-19T18:10:57;15.20;99.90
69901;DHT22;57183;50.930;5.406;2022-10-19T18:13:23;15.10;99.90
69901;DHT22;57183;50.930;5.406;2022-10-19T18:15:49;15.10;99.90
69901;DHT22;57183;50.930;5.406;2022-10-19T18:18:15;15.10;99.90
69901;DHT22;57183;50.930;5.406;2022-10-19T18:20:42;15.00;99.90
69901;DHT22;57183;50.930;5.406;2022-10-19T18:23:08;15.00;99.90
69901;DHT22;57183;50.930;5.406;2022-10-19T18:25:36;15.10;99.90
69901;DHT22;57183;50.930;5.406;2022-10-19T18:28:02;15.10;99.90
69901;DHT22;57183;50.930;5.406;2022-10-19T18:30:36;15.20;99.90
69901;DHT22;57183;50.930;5.406;2022-10-19T18:33:02;15.20;99.90
69901;DHT22;57183;50.930;5.406;2022-10-19T18:35:28;15.20;99.90
69901;DHT22;57183;50.930;5.406;2022-10-19T18:37:54;15.20;99.90
69901;DHT22;57183;50.930;5.406;2022-10-19T18:40:20;15.10;99.90
69901;DHT22;57183;50.930;5.406;2022-10-19T18:42:46;15.20;99.90
69901;DHT22;57183;50.930;5.406;2022-10-19T18:45:11;15.20;99.90
69901;DHT22;57183;50.930;5.406;2022-10-19T18:47:37;15.20;99.90
69901;DHT22;57183;50.930;5.406;2022-10-19T18:50:03;15.30;99.90
69901;DHT22;57183;50.930;5.406;2022-10-19T18:52:31;15.30;99.90
69901;DHT22;57183;50.930;5.406;2022-10-19T18:55:00;15.30;99.90
69901;DHT22;57183;50.930;5.406;2022-10-19T18:57:26;15.30;99.90
69901;DHT22;57183;50.930;5.406;2022-10-19T18:59:51;15.20;99.90